createdAt,value
2017-04-22T00:00:32.286Z,9.25
2017-04-22T00:01:13.226Z,9.28
2017-04-22T00:01:54.197Z,9.29
2017-04-22T00:02:35.082Z,9.29
2017-04-22T00:03:16.042Z,9.31
2017-04-22T00:04:33.883Z,9.14
2017-04-22T00:06:13.266Z,9.14
2017-04-22T00:06:54.325Z,9.11
2017-04-22T00:07:35.237Z,9.08
2017-04-22T00:08:16.181Z,9.06
2017-04-22T00:09:55.583Z,9.36
2017-04-22T00:10:36.528Z,9.25
2017-04-22T00:11:17.470Z,9.19
2017-04-22T00:11:58.383Z,9.14
2017-04-22T00:13:31.690Z,9.13
2017-04-22T00:14:12.597Z,8.91
2017-04-22T00:14:53.556Z,9
2017-04-22T00:15:34.508Z,9.02
2017-04-22T00:16:15.413Z,9.08
2017-04-22T00:16:56.336Z,9.04
2017-04-22T00:17:37.318Z,9.21
2017-04-22T00:18:18.264Z,9.14
2017-04-22T00:18:59.208Z,9.06
2017-04-22T00:19:40.111Z,8.99
2017-04-22T00:20:21.019Z,9.04
2017-04-22T00:21:01.977Z,9.08
2017-04-22T00:21:42.919Z,9.02
2017-04-22T00:22:23.871Z,9.1
2017-04-22T00:23:04.834Z,9.02
2017-04-22T00:23:45.732Z,8.99
2017-04-22T00:24:26.649Z,8.89
2017-04-22T00:25:07.638Z,9.1
2017-04-22T00:25:48.637Z,9.18
2017-04-22T00:26:29.646Z,9.11
2017-04-22T00:27:10.565Z,9.02
2017-04-22T00:28:50.000Z,9.06
2017-04-22T00:29:30.955Z,9.04
2017-04-22T00:30:11.889Z,9.04
2017-04-22T00:30:52.852Z,8.99
2017-04-22T00:31:33.784Z,9
2017-04-22T00:32:14.749Z,9.02
2017-04-22T00:34:08.464Z,8.87
2017-04-22T00:34:49.470Z,8.88
2017-04-22T00:35:30.438Z,8.85
2017-04-22T00:36:11.404Z,8.89
2017-04-22T00:36:52.395Z,8.88
2017-04-22T00:37:33.329Z,8.89
2017-04-22T00:38:14.223Z,8.91
2017-04-22T00:38:55.162Z,9.06
2017-04-22T00:39:36.073Z,8.97
2017-04-22T00:40:17.004Z,8.87
2017-04-22T00:40:57.921Z,8.89
2017-04-22T00:41:38.896Z,8.84
2017-04-22T00:42:19.840Z,8.78
2017-04-22T00:43:00.788Z,8.82
2017-04-22T00:43:41.747Z,8.7
2017-04-22T00:44:22.663Z,8.7
2017-04-22T00:45:03.675Z,8.76
2017-04-22T00:45:44.594Z,8.79
2017-04-22T00:46:25.583Z,8.79
2017-04-22T00:47:06.559Z,8.85
2017-04-22T00:47:47.520Z,8.63
2017-04-22T00:48:28.434Z,8.63
2017-04-22T00:49:09.344Z,8.64
2017-04-22T00:49:50.307Z,8.58
2017-04-22T00:50:31.339Z,8.51
2017-04-22T00:51:12.277Z,8.52
2017-04-22T00:51:53.212Z,8.52
2017-04-22T00:52:34.198Z,8.53
2017-04-22T00:53:15.130Z,8.49
2017-04-22T00:53:56.101Z,8.46
2017-04-22T00:54:37.033Z,8.46
2017-04-22T00:55:17.948Z,8.52
2017-04-22T00:55:58.850Z,8.51
2017-04-22T00:56:39.778Z,8.48
2017-04-22T00:57:20.751Z,8.41
2017-04-22T00:59:15.411Z,8.37
2017-04-22T00:59:56.366Z,8.36
2017-04-22T01:00:37.376Z,8.28
2017-04-22T01:01:18.306Z,8.27
2017-04-22T01:01:59.263Z,8.33
2017-04-22T01:02:40.207Z,8.24
2017-04-22T01:04:14.463Z,8.24
2017-04-22T01:04:55.431Z,8.27
2017-04-22T01:05:36.385Z,8.19
2017-04-22T01:06:17.325Z,8.16
2017-04-22T01:06:58.285Z,8.27
2017-04-22T01:07:39.222Z,8.24
2017-04-22T01:08:20.127Z,8.16
2017-04-22T01:09:01.099Z,8.06
2017-04-22T01:09:42.038Z,8.06
2017-04-22T01:10:22.980Z,8.1
2017-04-22T01:11:03.930Z,8.06
2017-04-22T01:11:44.874Z,8.05
2017-04-22T01:12:25.834Z,7.97
2017-04-22T01:13:06.764Z,7.98
2017-04-22T01:13:47.706Z,7.98
2017-04-22T01:14:28.640Z,8
2017-04-22T01:15:09.519Z,8.08
2017-04-22T01:15:50.479Z,8.08
2017-04-22T01:16:31.410Z,8
2017-04-22T01:17:12.318Z,7.98
2017-04-22T01:17:53.285Z,7.97
2017-04-22T01:18:34.233Z,8.05
2017-04-22T01:19:52.121Z,8.15
2017-04-22T01:20:33.066Z,8.09
2017-04-22T01:21:13.940Z,8.05
2017-04-22T01:21:54.902Z,8
2017-04-22T01:22:35.896Z,8
2017-04-22T01:23:16.929Z,7.95
2017-04-22T01:23:57.871Z,7.97
2017-04-22T01:24:38.775Z,7.95
2017-04-22T01:25:19.689Z,7.93
2017-04-22T01:26:00.650Z,7.93
2017-04-22T01:26:41.621Z,7.83
2017-04-22T01:27:22.512Z,7.91
2017-04-22T01:28:03.512Z,7.87
2017-04-22T01:28:44.453Z,7.8
2017-04-22T01:29:25.491Z,7.85
2017-04-22T01:30:06.444Z,7.87
2017-04-22T01:30:47.333Z,7.79
2017-04-22T01:31:28.253Z,7.72
2017-04-22T01:32:09.236Z,7.72
2017-04-22T01:32:50.124Z,7.72
2017-04-22T01:33:31.066Z,7.73
2017-04-22T01:34:12.008Z,7.69
2017-04-22T01:34:52.919Z,7.7
2017-04-22T01:35:33.907Z,7.7
2017-04-22T01:36:14.906Z,7.66
2017-04-22T01:36:55.826Z,7.75
2017-04-22T01:37:36.807Z,7.73
2017-04-22T01:38:17.752Z,7.69
2017-04-22T01:38:58.687Z,7.56
2017-04-22T01:39:39.630Z,7.63
2017-04-22T01:40:20.582Z,7.76
2017-04-22T01:41:01.505Z,7.53
2017-04-22T01:41:42.448Z,7.66
2017-04-22T01:42:23.423Z,7.58
2017-04-22T01:43:04.375Z,7.67
2017-04-22T01:43:45.295Z,7.61
2017-04-22T01:44:26.257Z,7.67
2017-04-22T01:45:07.192Z,7.66
2017-04-22T01:45:48.132Z,7.7
2017-04-22T01:46:29.103Z,7.63
2017-04-22T01:47:10.063Z,7.7
2017-04-22T01:47:50.964Z,7.67
2017-04-22T01:48:31.908Z,7.61
2017-04-22T01:49:12.855Z,7.61
2017-04-22T01:50:40.949Z,7.56
2017-04-22T01:51:21.879Z,7.53
2017-04-22T01:52:02.834Z,7.51
2017-04-22T01:52:43.724Z,7.48
2017-04-22T01:53:24.670Z,7.58
2017-04-22T01:54:05.660Z,7.54
2017-04-22T01:55:33.823Z,7.61
2017-04-22T01:57:27.491Z,7.5
2017-04-22T01:58:08.447Z,7.66
2017-04-22T01:58:49.384Z,7.6
2017-04-22T01:59:30.345Z,7.54
2017-04-22T02:00:11.367Z,7.51
2017-04-22T02:00:52.325Z,7.51
2017-04-22T02:01:33.301Z,7.42
2017-04-22T02:02:14.232Z,7.43
2017-04-22T02:02:55.146Z,7.5
2017-04-22T02:04:23.250Z,7.57
2017-04-22T02:05:04.164Z,7.53
2017-04-22T02:05:45.083Z,7.45
2017-04-22T02:06:26.042Z,7.36
2017-04-22T02:07:07.055Z,7.35
2017-04-22T02:07:47.976Z,7.4
2017-04-22T02:08:29.056Z,7.4
2017-04-22T02:09:09.887Z,7.31
2017-04-22T02:11:03.565Z,7.47
2017-04-22T02:12:22.392Z,7.35
2017-04-22T02:13:40.277Z,7.32
2017-04-22T02:14:21.333Z,7.36
2017-04-22T02:15:02.232Z,7.36
2017-04-22T02:15:43.194Z,7.4
2017-04-22T02:16:24.203Z,7.53
2017-04-22T02:17:05.170Z,7.38
2017-04-22T02:17:46.130Z,7.48
2017-04-22T02:18:27.085Z,7.45
2017-04-22T02:20:05.510Z,7.4
2017-04-22T02:20:46.376Z,7.39
2017-04-22T02:21:27.261Z,7.33
2017-04-22T02:22:08.134Z,7.33
2017-04-22T02:22:49.020Z,7.29
2017-04-22T02:23:29.884Z,7.35
2017-04-22T02:24:10.759Z,7.39
2017-04-22T02:24:51.638Z,7.38
2017-04-22T02:25:32.509Z,7.43
2017-04-22T02:26:13.456Z,7.39
2017-04-22T02:26:54.327Z,7.39
2017-04-22T02:27:35.197Z,7.28
2017-04-22T02:28:16.078Z,7.4
2017-04-22T02:28:56.956Z,7.36
2017-04-22T02:29:37.821Z,7.33
2017-04-22T02:30:18.687Z,7.23
2017-04-22T02:30:59.553Z,7.18
2017-04-22T02:31:40.426Z,7.18
2017-04-22T02:32:21.305Z,7.23
2017-04-22T02:33:02.226Z,7.28
2017-04-22T02:33:43.071Z,7.29
2017-04-22T02:34:23.963Z,7.31
2017-04-22T02:35:04.824Z,7.32
2017-04-22T02:35:45.681Z,7.23
2017-04-22T02:36:27.061Z,7.21
2017-04-22T02:37:07.893Z,7.24
2017-04-22T02:37:48.781Z,7.14
2017-04-22T02:38:29.648Z,7.23
2017-04-22T02:39:10.529Z,7.23
2017-04-22T02:39:51.414Z,7.31
2017-04-22T02:40:32.282Z,7.2
2017-04-22T02:41:13.161Z,7.28
2017-04-22T02:41:54.039Z,7.14
2017-04-22T02:42:34.910Z,7.23
2017-04-22T02:43:15.792Z,7.23
2017-04-22T02:43:56.725Z,7.32
2017-04-22T02:44:37.711Z,7.23
2017-04-22T02:45:18.578Z,7.15
2017-04-22T02:45:59.456Z,7.18
2017-04-22T02:46:40.338Z,7.18
2017-04-22T02:47:21.220Z,7.07
2017-04-22T02:48:02.090Z,7.06
2017-04-22T02:48:42.979Z,7.14
2017-04-22T02:49:23.898Z,7.06
2017-04-22T02:50:04.731Z,7.02
2017-04-22T02:52:19.613Z,7.07
2017-04-22T02:53:02.651Z,7.03
2017-04-22T02:53:43.532Z,7.06
2017-04-22T02:54:24.411Z,7.1
2017-04-22T02:55:07.023Z,7.1
2017-04-22T02:55:47.915Z,7.07
2017-04-22T02:56:28.813Z,7.03
2017-04-22T02:57:09.689Z,6.92
2017-04-22T02:57:54.295Z,7.02
2017-04-22T02:58:35.167Z,7.03
2017-04-22T02:59:16.048Z,7.13
2017-04-22T02:59:57.060Z,7.05
2017-04-22T03:00:40.021Z,7.06
2017-04-22T03:01:23.564Z,7.07
2017-04-22T03:02:06.160Z,7.07
2017-04-22T03:02:47.038Z,7.07
2017-04-22T03:03:28.081Z,7.07
2017-04-22T03:04:11.793Z,7.11
2017-04-22T03:04:52.681Z,7.23
2017-04-22T03:05:33.562Z,7.07
2017-04-22T03:06:14.426Z,6.95
2017-04-22T03:06:55.296Z,7.03
2017-04-22T03:07:36.175Z,7.07
2017-04-22T03:08:17.082Z,7.06
2017-04-22T03:08:58.014Z,7.05
2017-04-22T03:09:38.925Z,6.87
2017-04-22T03:10:19.807Z,6.85
2017-04-22T03:11:00.710Z,6.95
2017-04-22T03:11:41.587Z,6.89
2017-04-22T03:12:22.460Z,6.93
2017-04-22T03:13:03.346Z,6.88
2017-04-22T03:13:44.222Z,6.99
2017-04-22T03:14:25.101Z,7
2017-04-22T03:15:05.981Z,7.05
2017-04-22T03:15:46.880Z,7.02
2017-04-22T03:16:27.757Z,6.95
2017-04-22T03:17:08.648Z,6.92
2017-04-22T03:17:49.543Z,6.87
2017-04-22T03:18:30.426Z,6.87
2017-04-22T03:19:11.263Z,6.85
2017-04-22T03:19:52.133Z,6.95
2017-04-22T03:20:33.026Z,6.93
2017-04-22T03:21:13.899Z,6.87
2017-04-22T03:21:54.795Z,6.84
2017-04-22T03:22:35.680Z,6.78
2017-04-22T03:23:16.569Z,6.79
2017-04-22T03:23:57.447Z,6.78
2017-04-22T03:24:38.325Z,6.79
2017-04-22T03:25:19.207Z,6.79
2017-04-22T03:26:00.088Z,6.84
2017-04-22T03:26:40.960Z,6.77
2017-04-22T03:27:21.834Z,6.7
2017-04-22T03:28:02.697Z,6.7
2017-04-22T03:28:43.580Z,6.79
2017-04-22T03:29:24.446Z,6.84
2017-04-22T03:30:05.333Z,6.81
2017-04-22T03:30:46.214Z,6.85
2017-04-22T03:31:27.157Z,6.89
2017-04-22T03:32:08.032Z,6.79
2017-04-22T03:32:48.896Z,6.77
2017-04-22T03:33:29.767Z,6.75
2017-04-22T03:34:10.653Z,6.67
2017-04-22T03:34:51.531Z,6.7
2017-04-22T03:35:32.405Z,6.7
2017-04-22T03:36:13.285Z,6.74
2017-04-22T03:36:54.159Z,6.67
2017-04-22T03:37:35.020Z,6.67
2017-04-22T03:38:15.899Z,6.89
2017-04-22T03:38:56.837Z,6.87
2017-04-22T03:39:37.753Z,6.89
2017-04-22T03:40:20.527Z,6.75
2017-04-22T03:41:01.416Z,6.74
2017-04-22T03:41:42.313Z,6.75
2017-04-22T03:42:23.215Z,6.63
2017-04-22T03:43:04.102Z,6.69
2017-04-22T03:43:44.997Z,6.64
2017-04-22T03:44:25.889Z,6.54
2017-04-22T03:45:06.769Z,6.54
2017-04-22T03:45:47.649Z,6.59
2017-04-22T03:46:30.317Z,6.57
2017-04-22T03:47:14.672Z,6.41
2017-04-22T03:47:55.550Z,6.57
2017-04-22T03:48:36.428Z,6.59
2017-04-22T03:49:17.302Z,6.45
2017-04-22T03:49:58.201Z,6.59
2017-04-22T03:50:39.075Z,6.52
2017-04-22T03:51:19.956Z,6.57
2017-04-22T03:52:00.815Z,6.48
2017-04-22T03:52:41.682Z,6.59
2017-04-22T03:53:22.554Z,6.41
2017-04-22T03:54:03.437Z,6.39
2017-04-22T03:54:44.310Z,6.41
2017-04-22T03:55:25.192Z,6.46
2017-04-22T03:56:06.104Z,6.42
2017-04-22T03:56:46.987Z,6.36
2017-04-22T03:57:27.881Z,6.42
2017-04-22T03:58:08.738Z,6.42
2017-04-22T03:58:49.614Z,6.39
2017-04-22T03:59:30.510Z,6.49
2017-04-22T04:00:11.376Z,6.56
2017-04-22T04:00:52.254Z,6.44
2017-04-22T04:01:33.138Z,6.51
2017-04-22T04:02:14.007Z,6.49
2017-04-22T04:02:54.885Z,6.45
2017-04-22T04:03:35.766Z,6.51
2017-04-22T04:04:16.651Z,6.41
2017-04-22T04:04:57.519Z,6.44
2017-04-22T04:05:38.394Z,6.31
2017-04-22T04:06:19.268Z,6.64
2017-04-22T04:07:00.142Z,6.54
2017-04-22T04:07:41.038Z,6.44
2017-04-22T04:08:21.913Z,6.42
2017-04-22T04:09:02.799Z,6.39
2017-04-22T04:09:43.660Z,6.42
2017-04-22T04:10:24.541Z,6.42
2017-04-22T04:11:05.410Z,6.41
2017-04-22T04:11:46.305Z,6.44
2017-04-22T04:12:27.178Z,6.49
2017-04-22T04:13:08.051Z,6.36
2017-04-22T04:13:48.937Z,6.42
2017-04-22T04:14:29.820Z,6.38
2017-04-22T04:15:10.692Z,6.36
2017-04-22T04:15:51.559Z,6.44
2017-04-22T04:16:32.431Z,6.44
2017-04-22T04:17:13.304Z,6.46
2017-04-22T04:17:54.164Z,6.36
2017-04-22T04:18:35.058Z,6.39
2017-04-22T04:19:15.935Z,6.31
2017-04-22T04:19:56.801Z,6.39
2017-04-22T04:20:37.673Z,6.31
2017-04-22T04:21:18.552Z,6.33
2017-04-22T04:21:59.431Z,6.42
2017-04-22T04:22:40.308Z,6.42
2017-04-22T04:23:21.182Z,6.38
2017-04-22T04:24:02.068Z,6.44
2017-04-22T04:24:42.944Z,6.44
2017-04-22T04:25:23.815Z,6.63
2017-04-22T04:26:04.716Z,6.46
2017-04-22T04:26:45.589Z,6.41
2017-04-22T04:27:26.465Z,6.52
2017-04-22T04:28:07.340Z,6.42
2017-04-22T04:28:48.195Z,6.41
2017-04-22T04:29:29.081Z,6.35
2017-04-22T04:30:09.950Z,6.3
2017-04-22T04:30:50.836Z,6.39
2017-04-22T04:31:33.668Z,6.41
2017-04-22T04:32:14.576Z,6.33
2017-04-22T04:32:55.458Z,6.42
2017-04-22T04:33:36.322Z,6.41
2017-04-22T04:34:17.203Z,6.44
2017-04-22T04:34:58.082Z,6.39
2017-04-22T04:35:38.958Z,6.39
2017-04-22T04:36:19.851Z,6.41
2017-04-22T04:37:00.728Z,6.42
2017-04-22T04:37:41.596Z,6.42
2017-04-22T04:38:22.474Z,6.45
2017-04-22T04:39:03.349Z,6.52
2017-04-22T04:39:44.233Z,6.49
2017-04-22T04:40:25.109Z,6.48
2017-04-22T04:41:05.984Z,6.36
2017-04-22T04:41:46.848Z,6.44
2017-04-22T04:42:27.729Z,6.45
2017-04-22T04:43:08.615Z,6.48
2017-04-22T04:43:49.508Z,6.6
2017-04-22T04:44:30.378Z,6.39
2017-04-22T04:45:12.807Z,6.42
2017-04-22T04:45:53.680Z,6.46
2017-04-22T04:46:34.556Z,6.51
2017-04-22T04:47:15.447Z,6.51
2017-04-22T04:47:56.325Z,6.44
2017-04-22T04:48:37.187Z,6.54
2017-04-22T04:49:18.065Z,6.56
2017-04-22T04:49:58.953Z,6.56
2017-04-22T04:50:39.837Z,6.45
2017-04-22T04:51:20.710Z,6.38
2017-04-22T04:52:01.578Z,6.31
2017-04-22T04:52:42.450Z,6.39
2017-04-22T04:53:23.337Z,6.45
2017-04-22T04:54:04.221Z,6.39
2017-04-22T04:54:45.125Z,6.39
2017-04-22T04:55:26.013Z,6.54
2017-04-22T04:56:06.891Z,6.44
2017-04-22T04:56:47.775Z,6.42
2017-04-22T04:57:28.643Z,6.35
2017-04-22T04:58:09.520Z,6.52
2017-04-22T04:58:50.400Z,6.45
2017-04-22T04:59:31.285Z,6.42
2017-04-22T05:00:12.161Z,6.39
2017-04-22T05:00:53.025Z,6.46
2017-04-22T05:01:33.893Z,6.45
2017-04-22T05:02:14.761Z,6.46
2017-04-22T05:02:55.627Z,6.42
2017-04-22T05:03:36.578Z,6.45
2017-04-22T05:04:17.462Z,6.42
2017-04-22T05:04:58.340Z,6.48
2017-04-22T05:05:39.215Z,6.41
2017-04-22T05:06:20.083Z,6.52
2017-04-22T05:07:00.945Z,6.57
2017-04-22T05:07:41.818Z,6.56
2017-04-22T05:08:22.692Z,6.51
2017-04-22T05:09:03.586Z,6.44
2017-04-22T05:09:44.457Z,6.41
2017-04-22T05:10:25.334Z,6.6
2017-04-22T05:11:06.228Z,6.56
2017-04-22T05:11:47.109Z,6.39
2017-04-22T05:12:28.007Z,6.38
2017-04-22T05:13:08.880Z,6.41
2017-04-22T05:13:49.741Z,6.52
2017-04-22T05:14:30.606Z,6.6
2017-04-22T05:15:11.480Z,6.6
2017-04-22T05:15:52.362Z,6.64
2017-04-22T05:16:33.246Z,6.7
2017-04-22T05:17:14.120Z,6.64
2017-04-22T05:17:54.990Z,6.74
2017-04-22T05:18:35.860Z,6.56
2017-04-22T05:19:16.733Z,6.59
2017-04-22T05:19:57.618Z,6.54
2017-04-22T05:20:38.490Z,6.48
2017-04-22T05:21:19.368Z,6.52
2017-04-22T05:22:00.240Z,6.57
2017-04-22T05:22:41.118Z,6.57
2017-04-22T05:23:22.010Z,6.59
2017-04-22T05:24:02.883Z,6.59
2017-04-22T05:24:43.782Z,6.48
2017-04-22T05:25:24.658Z,6.64
2017-04-22T05:26:05.549Z,6.59
2017-04-22T05:26:46.430Z,6.64
2017-04-22T05:27:27.297Z,6.77
2017-04-22T05:28:08.160Z,6.59
2017-04-22T05:28:49.038Z,6.64
2017-04-22T05:29:29.915Z,6.57
2017-04-22T05:30:10.797Z,6.6
2017-04-22T05:30:51.674Z,6.63
2017-04-22T05:31:32.591Z,6.64
2017-04-22T05:32:13.526Z,6.63
2017-04-22T05:32:54.471Z,6.62
2017-04-22T05:33:35.335Z,6.49
2017-04-22T05:34:16.211Z,6.6
2017-04-22T05:34:57.091Z,6.59
2017-04-22T05:35:37.994Z,6.64
2017-04-22T05:36:18.863Z,6.7
2017-04-22T05:36:59.732Z,6.72
2017-04-22T05:37:40.600Z,6.77
2017-04-22T05:38:21.499Z,6.85
2017-04-22T05:39:02.382Z,6.78
2017-04-22T05:39:43.257Z,6.75
2017-04-22T05:40:24.120Z,6.67
2017-04-22T05:41:04.990Z,6.67
2017-04-22T05:41:45.863Z,6.72
2017-04-22T05:42:26.747Z,6.82
2017-04-22T05:43:07.631Z,6.89
2017-04-22T05:43:48.505Z,6.85
2017-04-22T05:44:29.360Z,6.87
2017-04-22T05:45:10.277Z,6.7
2017-04-22T05:45:51.201Z,6.85
2017-04-22T05:46:32.040Z,6.97
2017-04-22T05:47:12.915Z,6.96
2017-04-22T05:47:53.786Z,7.02
2017-04-22T05:48:34.723Z,7.06
2017-04-22T05:49:15.602Z,7.02
2017-04-22T05:49:56.482Z,7.02
2017-04-22T05:50:37.366Z,7.07
2017-04-22T05:51:18.259Z,7.1
2017-04-22T05:51:59.138Z,7.06
2017-04-22T05:52:40.026Z,6.93
2017-04-22T05:53:20.900Z,6.87
2017-04-22T05:54:01.758Z,7
2017-04-22T05:54:42.642Z,6.92
2017-04-22T05:55:23.515Z,6.96
2017-04-22T05:56:04.419Z,6.84
2017-04-22T05:56:45.371Z,6.92
2017-04-22T05:57:26.363Z,6.93
2017-04-22T05:58:54.505Z,7.02
2017-04-22T05:59:35.390Z,7.06
2017-04-22T06:00:16.306Z,7.02
2017-04-22T06:00:57.295Z,7.05
2017-04-22T06:01:38.259Z,7.03
2017-04-22T06:02:19.191Z,7.06
2017-04-22T06:03:00.119Z,7.15
2017-04-22T06:03:41.105Z,7.28
2017-04-22T06:04:22.153Z,7.31
2017-04-22T06:06:00.678Z,7.24
2017-04-22T06:06:42.068Z,7.15
2017-04-22T06:07:23.442Z,7.31
2017-04-22T06:08:04.778Z,7.29
2017-04-22T06:08:46.109Z,7.31
2017-04-22T06:09:27.500Z,7.33
2017-04-22T06:10:08.787Z,7.33
2017-04-22T06:10:50.101Z,7.29
2017-04-22T06:11:31.368Z,7.31
2017-04-22T06:12:12.660Z,7.21
2017-04-22T06:12:53.958Z,7.17
2017-04-22T06:13:35.245Z,7.39
2017-04-22T06:14:16.551Z,7.29
2017-04-22T06:14:57.898Z,7.18
2017-04-22T06:15:39.239Z,7.31
2017-04-22T06:16:20.616Z,7.24
2017-04-22T06:17:01.968Z,7.23
2017-04-22T06:17:43.304Z,7.18
2017-04-22T06:18:24.624Z,7.33
2017-04-22T06:19:05.969Z,7.36
2017-04-22T06:19:47.230Z,7.45
2017-04-22T06:20:28.500Z,7.45
2017-04-22T06:21:09.753Z,7.58
2017-04-22T06:21:50.996Z,7.51
2017-04-22T06:22:32.231Z,7.67
2017-04-22T06:23:13.485Z,7.67
2017-04-22T06:23:54.758Z,7.61
2017-04-22T06:24:36.009Z,7.51
2017-04-22T06:25:17.258Z,7.67
2017-04-22T06:25:58.519Z,7.7
2017-04-22T06:26:39.785Z,7.7
2017-04-22T06:27:21.024Z,7.54
2017-04-22T06:28:02.287Z,7.53
2017-04-22T06:28:43.528Z,7.56
2017-04-22T06:29:24.780Z,7.73
2017-04-22T06:30:06.050Z,7.66
2017-04-22T06:30:47.348Z,7.67
2017-04-22T06:31:28.664Z,7.79
2017-04-22T06:32:09.784Z,7.73
2017-04-22T06:32:50.832Z,7.57
2017-04-22T06:33:31.846Z,7.61
2017-04-22T06:34:12.914Z,7.66
2017-04-22T06:34:53.992Z,7.7
2017-04-22T06:35:35.163Z,7.51
2017-04-22T06:36:16.242Z,7.45
2017-04-22T06:36:57.261Z,7.56
2017-04-22T06:37:38.270Z,7.61
2017-04-22T06:38:19.271Z,7.79
2017-04-22T06:39:00.285Z,7.87
2017-04-22T06:39:41.344Z,7.85
2017-04-22T06:40:22.379Z,7.93
2017-04-22T06:41:03.438Z,8
2017-04-22T06:41:44.451Z,8.06
2017-04-22T06:42:25.392Z,8.13
2017-04-22T06:43:06.409Z,8.26
2017-04-22T06:43:47.401Z,8.01
2017-04-22T06:44:28.416Z,7.75
2017-04-22T06:45:09.367Z,7.8
2017-04-22T06:45:50.235Z,7.69
2017-04-22T06:46:31.143Z,7.75
2017-04-22T06:47:12.028Z,7.79
2017-04-22T06:47:52.912Z,7.73
2017-04-22T06:48:33.821Z,7.77
2017-04-22T06:49:14.906Z,7.76
2017-04-22T06:50:43.122Z,7.75
2017-04-22T06:51:24.212Z,7.61
2017-04-22T06:52:05.158Z,7.75
2017-04-22T06:52:46.145Z,7.76
2017-04-22T06:53:27.030Z,7.83
2017-04-22T06:54:07.891Z,7.72
2017-04-22T06:54:48.766Z,7.82
2017-04-22T06:55:29.635Z,7.88
2017-04-22T06:56:10.506Z,7.7
2017-04-22T06:56:51.373Z,7.85
2017-04-22T06:57:32.293Z,7.94
2017-04-22T06:58:13.163Z,8.15
2017-04-22T06:58:54.037Z,8.31
2017-04-22T06:59:34.980Z,8.24
2017-04-22T07:00:15.856Z,8.34
2017-04-22T07:00:56.749Z,8.46
2017-04-22T07:01:37.626Z,8.27
2017-04-22T07:02:18.498Z,8.18
2017-04-22T07:02:59.369Z,7.95
2017-04-22T07:03:40.249Z,7.95
2017-04-22T07:04:21.109Z,8.01
2017-04-22T07:05:01.996Z,8
2017-04-22T07:05:42.885Z,8.01
2017-04-22T07:06:23.751Z,8.19
2017-04-22T07:07:04.620Z,8.23
2017-04-22T07:07:45.487Z,8.19
2017-04-22T07:08:26.366Z,8.28
2017-04-22T07:09:07.242Z,8.23
2017-04-22T07:09:48.209Z,8.16
2017-04-22T07:10:29.092Z,8.18
2017-04-22T07:11:09.971Z,8.13
2017-04-22T07:11:50.845Z,8.13
2017-04-22T07:12:31.730Z,8.18
2017-04-22T07:13:12.615Z,8.27
2017-04-22T07:13:53.489Z,8.27
2017-04-22T07:14:34.357Z,8.15
2017-04-22T07:15:15.221Z,8.12
2017-04-22T07:15:56.120Z,8.12
2017-04-22T07:16:36.989Z,8.06
2017-04-22T07:17:17.870Z,8.13
2017-04-22T07:17:58.752Z,8.3
2017-04-22T07:18:39.662Z,8.31
2017-04-22T07:19:20.604Z,8.27
2017-04-22T07:20:01.482Z,8.09
2017-04-22T07:20:42.363Z,8.13
2017-04-22T07:21:23.234Z,8.27
2017-04-22T07:22:04.113Z,8.49
2017-04-22T07:22:45.021Z,8.66
2017-04-22T07:23:25.901Z,8.79
2017-04-22T07:24:06.778Z,8.76
2017-04-22T07:24:47.649Z,8.71
2017-04-22T07:25:28.518Z,8.55
2017-04-22T07:26:09.405Z,8.56
2017-04-22T07:26:50.285Z,8.37
2017-04-22T07:27:32.125Z,8.27
2017-04-22T07:28:13.017Z,8.31
2017-04-22T07:28:53.913Z,8.01
2017-04-22T07:29:34.820Z,8.08
2017-04-22T07:30:15.713Z,8.16
2017-04-22T07:30:56.587Z,8.37
2017-04-22T07:31:37.452Z,8.46
2017-04-22T07:32:18.391Z,8.44
2017-04-22T07:32:59.352Z,8.24
2017-04-22T07:33:40.336Z,8.2
2017-04-22T07:34:21.373Z,8.27
2017-04-22T07:35:55.119Z,8.31
2017-04-22T07:36:36.132Z,8.48
2017-04-22T07:37:17.061Z,8.58
2017-04-22T07:37:57.960Z,8.36
2017-04-22T07:38:39.164Z,8.42
2017-04-22T07:39:20.006Z,8.41
2017-04-22T07:40:00.903Z,8.46
2017-04-22T07:40:41.754Z,8.49
2017-04-22T07:41:24.516Z,8.7
2017-04-22T07:42:05.404Z,8.81
2017-04-22T07:42:46.284Z,8.94
2017-04-22T07:43:27.152Z,8.89
2017-04-22T07:44:08.028Z,8.71
2017-04-22T07:44:48.911Z,8.81
2017-04-22T07:45:29.780Z,8.95
2017-04-22T07:46:10.665Z,8.95
2017-04-22T07:46:51.543Z,8.88
2017-04-22T07:47:32.463Z,8.66
2017-04-22T07:49:01.278Z,8.51
2017-04-22T07:49:42.165Z,8.38
2017-04-22T07:50:23.055Z,8.2
2017-04-22T07:51:04.000Z,8.26
2017-04-22T07:51:44.875Z,8.31
2017-04-22T07:52:25.767Z,8.28
2017-04-22T07:53:06.665Z,8.42
2017-04-22T07:53:47.552Z,8.53
2017-04-22T07:54:28.409Z,8.45
2017-04-22T07:55:09.318Z,8.36
2017-04-22T07:55:50.221Z,8.44
2017-04-22T07:56:31.107Z,8.46
2017-04-22T07:57:12.177Z,8.66
2017-04-22T07:57:56.389Z,8.61
2017-04-22T07:58:37.272Z,8.66
2017-04-22T07:59:18.150Z,8.61
2017-04-22T07:59:59.006Z,8.63
2017-04-22T08:00:39.882Z,8.52
2017-04-22T08:01:20.765Z,8.46
2017-04-22T08:02:01.638Z,8.48
2017-04-22T08:05:17.837Z,8.42
2017-04-22T08:05:58.732Z,8.48
2017-04-22T08:06:39.611Z,8.58
2017-04-22T08:07:20.487Z,8.7
2017-04-22T08:08:01.362Z,8.63
2017-04-22T08:08:42.244Z,8.6
2017-04-22T08:09:23.185Z,8.6
2017-04-22T08:10:04.011Z,8.64
2017-04-22T08:10:44.890Z,8.74
2017-04-22T08:11:25.765Z,8.74
2017-04-22T08:12:06.661Z,8.89
2017-04-22T08:12:47.550Z,8.87
2017-04-22T08:13:28.456Z,8.85
2017-04-22T08:14:09.332Z,8.84
2017-04-22T08:14:50.331Z,8.66
2017-04-22T08:15:31.313Z,8.69
2017-04-22T08:16:12.199Z,8.85
2017-04-22T08:16:53.070Z,8.88
2017-04-22T08:17:33.935Z,9.04
2017-04-22T08:18:14.805Z,9.11
2017-04-22T08:18:55.680Z,8.78
2017-04-22T08:19:36.538Z,8.64
2017-04-22T08:20:17.410Z,8.81
2017-04-22T08:20:58.289Z,8.81
2017-04-22T08:21:39.164Z,8.95
2017-04-22T08:22:20.049Z,8.94
2017-04-22T08:23:00.934Z,8.85
2017-04-22T08:23:41.805Z,8.84
2017-04-22T08:24:22.683Z,8.64
2017-04-22T08:25:03.588Z,8.51
2017-04-22T08:25:44.544Z,8.48
2017-04-22T08:26:25.398Z,8.56
2017-04-22T08:28:14.839Z,8.58
2017-04-22T08:28:56.701Z,8.63
2017-04-22T08:29:39.467Z,8.48
2017-04-22T08:30:20.340Z,8.44
2017-04-22T08:31:01.208Z,8.38
2017-04-22T08:31:42.093Z,8.27
2017-04-22T08:32:22.966Z,8.52
2017-04-22T08:33:05.686Z,8.36
2017-04-22T08:33:48.353Z,8.31
2017-04-22T08:34:32.703Z,8.45
2017-04-22T08:35:13.568Z,8.55
2017-04-22T08:35:54.439Z,8.61
2017-04-22T08:36:37.205Z,8.49
2017-04-22T08:37:18.087Z,8.6
2017-04-22T08:37:58.963Z,8.46
2017-04-22T08:38:39.839Z,8.45
2017-04-22T08:39:20.714Z,8.37
2017-04-22T08:40:01.588Z,8.38
2017-04-22T08:40:43.967Z,8.38
2017-04-22T08:41:26.827Z,8.2
2017-04-22T08:42:07.703Z,8.19
2017-04-22T08:42:48.591Z,8.24
2017-04-22T08:43:29.453Z,8.16
2017-04-22T08:44:10.339Z,8.09
2017-04-22T08:44:51.209Z,8.24
2017-04-22T08:45:32.093Z,8.12
2017-04-22T08:46:12.962Z,8.09
2017-04-22T08:46:53.840Z,8.03
2017-04-22T08:47:34.722Z,8
2017-04-22T08:48:15.606Z,8.03
2017-04-22T08:48:58.339Z,8.08
2017-04-22T08:49:39.226Z,8.09
2017-04-22T08:50:57.112Z,8.03
2017-04-22T08:51:37.995Z,8.01
2017-04-22T08:52:18.888Z,8.1
2017-04-22T08:52:59.767Z,8.05
2017-04-22T08:53:40.647Z,8.03
2017-04-22T08:54:21.505Z,8.08
2017-04-22T08:55:02.386Z,8.08
2017-04-22T08:55:43.255Z,7.95
2017-04-22T08:56:24.138Z,7.93
2017-04-22T08:57:05.019Z,7.82
2017-04-22T08:57:45.895Z,7.82
2017-04-22T08:58:26.764Z,7.79
2017-04-22T08:59:07.641Z,7.91
2017-04-22T08:59:48.517Z,8.03
2017-04-22T09:00:29.474Z,8.12
2017-04-22T09:01:10.411Z,8.01
2017-04-22T09:01:51.397Z,8.08
2017-04-22T09:02:32.275Z,8.03
2017-04-22T09:03:13.154Z,8.05
2017-04-22T09:03:54.048Z,8
2017-04-22T09:04:34.892Z,8.01
2017-04-22T09:05:15.772Z,8.03
2017-04-22T09:05:56.663Z,8.19
2017-04-22T09:06:37.569Z,8.34
2017-04-22T09:07:18.468Z,8.67
2017-04-22T09:07:59.346Z,9.06
2017-04-22T09:08:40.233Z,9.21
2017-04-22T09:09:21.100Z,9.4
2017-04-22T09:10:01.983Z,9.91
2017-04-22T09:10:42.844Z,9.97
2017-04-22T09:11:23.730Z,9.51
2017-04-22T09:12:04.595Z,9.31
2017-04-22T09:12:45.483Z,9.31
2017-04-22T09:13:26.369Z,9.41
2017-04-22T09:14:07.282Z,9.04
2017-04-22T09:15:40.727Z,8.79
2017-04-22T09:16:21.553Z,8.73
2017-04-22T09:17:02.420Z,8.69
2017-04-22T09:17:43.290Z,8.79
2017-04-22T09:18:24.177Z,8.67
2017-04-22T09:19:05.046Z,8.7
2017-04-22T09:19:45.970Z,8.64
2017-04-22T09:20:26.855Z,8.78
2017-04-22T09:21:07.756Z,8.78
2017-04-22T09:21:48.649Z,9.04
2017-04-22T09:22:29.521Z,9.08
2017-04-22T09:23:10.462Z,8.78
2017-04-22T09:23:51.256Z,8.74
2017-04-22T09:24:32.105Z,8.91
2017-04-22T09:25:12.972Z,8.84
2017-04-22T09:25:53.860Z,8.76
2017-04-22T09:26:34.743Z,8.64
2017-04-22T09:27:15.665Z,8.63
2017-04-22T09:27:57.156Z,8.66
2017-04-22T09:28:38.025Z,8.63
2017-04-22T09:29:18.899Z,8.53
2017-04-22T09:29:59.784Z,8.69
2017-04-22T09:30:40.661Z,8.45
2017-04-22T09:31:21.543Z,8.38
2017-04-22T09:32:02.413Z,8.31
2017-04-22T09:32:43.287Z,8.26
2017-04-22T09:33:24.183Z,8.31
2017-04-22T09:34:05.052Z,8.19